Time;durP1;ratioP1;P1;durP2;ratioP2;P2;SDS_P1;SDS_P2;PMS_P1;PMS_P2;Temp;Humidity;BMP_temperature;BMP_pressure;BME280_temperature;BME280_humidity;BME280_pressure;Samples;Min_cycle;Max_cycle;Signal;HPM_P1;HPM_P2
2022/10/24 00:02:03;;;;;;;4.97;2.92;;;15.50;99.90;;;;;;4964238;28;20413;-69
2022/10/24 00:04:28;;;;;;;9.93;3.22;;;15.50;99.90;;;;;;4960151;28;20043;-69
2022/10/24 00:06:54;;;;;;;5.35;2.90;;;15.40;99.90;;;;;;4955284;28;20036;-69
2022/10/24 00:09:19;;;;;;;8.80;3.25;;;15.40;99.90;;;;;;4968240;28;20034;-69
2022/10/24 00:11:45;;;;;;;6.13;2.70;;;15.40;99.90;;;;;;4964883;28;20398;-69
2022/10/24 00:14:11;;;;;;;5.78;2.90;;;15.40;99.90;;;;;;4956015;28;20054;-69
2022/10/24 00:16:36;;;;;;;7.47;2.60;;;15.40;99.90;;;;;;4968447;28;20481;-69
2022/10/24 00:19:02;;;;;;;5.22;2.70;;;15.40;99.90;;;;;;4964241;28;20050;-69
2022/10/24 00:21:28;;;;;;;5.30;2.50;;;15.40;99.90;;;;;;4960795;28;20486;-69
2022/10/24 00:23:54;;;;;;;11.10;2.83;;;15.40;99.90;;;;;;4957319;28;20078;-69
2022/10/24 00:26:19;;;;;;;6.53;2.65;;;15.40;99.90;;;;;;4962249;28;20039;-69
2022/10/24 00:28:45;;;;;;;9.48;3.38;;;15.40;99.90;;;;;;4971790;28;20042;-69
2022/10/24 00:31:16;;;;;;;9.95;3.25;;;15.40;99.90;;;;;;4962553;28;20481;-69
2022/10/24 00:33:42;;;;;;;6.57;2.63;;;15.30;99.90;;;;;;4955606;28;20513;-69
2022/10/24 00:36:17;;;;;;;6.70;2.70;;;15.30;99.90;;;;;;4966962;28;20042;-69
2022/10/24 00:38:43;;;;;;;7.80;3.05;;;15.20;99.90;;;;;;4967067;28;20069;-70
2022/10/24 00:41:17;;;;;;;8.13;3.08;;;15.20;99.90;;;;;;4957377;28;20216;-69
2022/10/24 00:43:43;;;;;;;8.07;2.97;;;15.10;99.90;;;;;;4962038;28;20043;-70
2022/10/24 00:46:08;;;;;;;6.82;3.03;;;15.00;99.90;;;;;;4964112;28;20043;-69
2022/10/24 00:48:48;;;;;;;6.28;3.03;;;15.00;99.90;;;;;;4958710;28;20050;-68
2022/10/24 00:51:17;;;;;;;5.20;3.00;;;15.00;99.90;;;;;;4964110;28;20141;-68
2022/10/24 00:53:47;;;;;;;9.70;3.42;;;15.10;99.90;;;;;;4972799;28;20043;-69
2022/10/24 00:56:15;;;;;;;6.63;3.35;;;15.10;99.90;;;;;;4959298;28;20097;-69
2022/10/24 00:58:43;;;;;;;7.57;3.60;;;15.20;99.90;;;;;;4966982;28;20117;-69
2022/10/24 01:01:10;;;;;;;9.98;3.30;;;15.20;99.90;;;;;;4964529;28;20525;-69
2022/10/24 01:03:36;;;;;;;12.60;3.55;;;15.30;99.90;;;;;;4960969;28;20502;-69
2022/10/24 01:06:21;;;;;;;6.20;3.38;;;15.40;99.90;;;;;;4949726;28;20425;-69
2022/10/24 01:09:21;;;;;;;9.07;3.17;;;15.40;99.90;;;;;;4951021;28;20046;-69
2022/10/24 01:12:22;;;;;;;6.63;3.40;;;15.50;99.90;;;;;;4967539;28;20100;-69
2022/10/24 01:15:06;;;;;;;8.83;3.50;;;15.50;99.90;;;;;;4944892;28;20055;-70
2022/10/24 01:17:43;;;;;;;7.97;3.42;;;15.40;99.90;;;;;;4959810;28;20052;-69
2022/10/24 01:20:33;;;;;;;11.05;3.30;;;15.40;99.90;;;;;;4949518;28;20043;-69
2022/10/24 01:23:11;;;;;;;11.73;3.90;;;15.40;99.90;;;;;;4959349;28;20041;-68
2022/10/24 01:25:48;;;;;;;7.32;3.55;;;15.40;99.90;;;;;;4967454;28;20105;-70
2022/10/24 01:28:36;;;;;;;7.40;3.42;;;15.40;99.90;;;;;;4961373;28;20474;-69
2022/10/24 01:31:08;;;;;;;13.35;3.70;;;15.40;99.90;;;;;;4962166;28;20054;-70
2022/10/24 01:33:47;;;;;;;9.98;3.83;;;15.30;99.90;;;;;;4966355;28;20628;-69
2022/10/24 01:36:19;;;;;;;8.02;3.70;;;15.20;99.90;;;;;;4977637;28;20043;-69
2022/10/24 01:38:50;;;;;;;9.70;3.80;;;15.20;99.90;;;;;;4962936;28;20034;-69
2022/10/24 01:41:19;;;;;;;;;;;15.20;99.90;;;;;;4972593;28;20046;-69
2022/10/24 01:43:55;;;;;;;10.13;3.80;;;15.10;99.90;;;;;;4959076;28;19925;-70
2022/10/24 01:46:26;;;;;;;8.82;3.63;;;15.10;99.90;;;;;;4960220;28;20600;-70
2022/10/24 01:49:17;;;;;;;12.93;3.80;;;15.00;99.90;;;;;;4963259;28;20031;-70
2022/10/24 01:51:46;;;;;;;12.70;3.65;;;15.00;99.90;;;;;;4957581;28;20043;-70
2022/10/24 01:54:12;;;;;;;7.68;3.38;;;15.00;99.90;;;;;;4967255;28;20454;-70
2022/10/24 01:56:37;;;;;;;13.95;4.30;;;14.90;99.90;;;;;;4968769;28;20077;-70
2022/10/24 01:59:28;;;;;;;12.13;4.40;;;14.90;99.90;;;;;;4959321;28;20070;-70
2022/10/24 02:02:09;;;;;;;13.82;3.92;;;14.90;99.90;;;;;;4965946;28;20053;-70
2022/10/24 02:04:39;;;;;;;9.05;3.97;;;15.00;99.90;;;;;;4964784;28;20039;-70
2022/10/24 02:07:09;;;;;;;12.10;3.70;;;15.00;99.90;;;;;;4959654;28;20422;-70
2022/10/24 02:09:38;;;;;;;11.85;3.58;;;15.00;99.90;;;;;;4971948;28;20049;-70
2022/10/24 02:12:07;;;;;;;7.90;3.60;;;14.90;99.90;;;;;;4967039;28;20047;-70
2022/10/24 02:14:38;;;;;;;13.63;3.72;;;14.90;99.90;;;;;;4973810;28;20105;-70
2022/10/24 02:17:04;;;;;;;11.85;3.60;;;14.80;99.90;;;;;;4968996;28;20053;-70
2022/10/24 02:19:31;;;;;;;10.57;3.60;;;14.80;99.90;;;;;;4961902;28;20497;-70
2022/10/24 02:22:10;;;;;;;13.80;3.83;;;14.80;99.90;;;;;;4955277;28;20043;-68
2022/10/24 02:24:35;;;;;;;9.35;3.30;;;14.80;99.90;;;;;;4963566;28;20042;-68
2022/10/24 02:27:08;;;;;;;11.77;3.55;;;14.80;99.90;;;;;;4956127;28;20043;-68
2022/10/24 02:29:43;;;;;;;9.27;3.28;;;14.80;99.90;;;;;;4953667;28;20073;-68
2022/10/24 02:32:13;;;;;;;7.25;3.47;;;14.80;99.90;;;;;;4959227;28;20049;-68
2022/10/24 02:34:40;;;;;;;8.15;3.63;;;14.90;99.90;;;;;;4958116;28;20042;-68
2022/10/24 02:37:08;;;;;;;10.73;3.45;;;14.90;99.90;;;;;;4952790;28;20493;-68
2022/10/24 02:39:36;;;;;;;9.00;3.92;;;14.90;99.90;;;;;;4963554;28;20039;-68
2022/10/24 02:42:04;;;;;;;10.00;3.50;;;15.00;99.90;;;;;;4965787;28;20125;-69
2022/10/24 02:44:31;;;;;;;10.32;3.90;;;15.00;99.90;;;;;;4970241;28;20166;-69
2022/10/24 02:46:59;;;;;;;10.95;3.83;;;15.00;99.90;;;;;;4966514;28;20068;-69
2022/10/24 02:49:26;;;;;;;12.07;3.53;;;15.00;99.90;;;;;;4966499;28;20042;-69
2022/10/24 02:51:52;;;;;;;9.50;3.95;;;15.00;99.90;;;;;;4963039;28;20035;-69
2022/10/24 02:54:18;;;;;;;11.57;3.70;;;15.10;99.90;;;;;;4964612;28;20046;-69
2022/10/24 02:56:48;;;;;;;7.07;3.22;;;15.00;99.90;;;;;;4964943;28;20498;-69
2022/10/24 02:59:13;;;;;;;8.30;3.45;;;15.00;99.90;;;;;;4974924;28;20043;-69
2022/10/24 03:01:39;;;;;;;9.05;3.78;;;15.00;99.90;;;;;;4964442;28;20167;-69
2022/10/24 03:04:05;;;;;;;7.18;3.60;;;15.00;99.90;;;;;;4965534;28;20043;-69
2022/10/24 03:06:31;;;;;;;8.85;3.72;;;14.90;99.90;;;;;;4965568;28;20513;-70
2022/10/24 03:08:56;;;;;;;9.85;3.35;;;15.00;99.90;;;;;;4951985;28;20045;-69
2022/10/24 03:11:22;;;;;;;8.00;3.63;;;15.00;99.90;;;;;;4971131;28;20632;-69
2022/10/24 03:13:48;;;;;;;10.57;4.10;;;14.90;99.90;;;;;;4964593;28;20058;-69
2022/10/24 03:16:13;;;;;;;12.73;4.00;;;14.90;99.90;;;;;;4966782;28;20035;-69
2022/10/24 03:18:39;;;;;;;8.02;3.60;;;14.90;99.90;;;;;;4952517;28;20510;-70
2022/10/24 03:21:05;;;;;;;7.28;3.72;;;14.90;99.90;;;;;;4961696;28;20045;-69
2022/10/24 03:23:30;;;;;;;13.50;4.00;;;14.90;99.90;;;;;;4961692;28;20023;-70
2022/10/24 03:25:57;;;;;;;7.43;4.00;;;15.00;99.90;;;;;;4950857;28;20517;-70
2022/10/24 03:28:23;;;;;;;10.35;3.55;;;15.00;99.90;;;;;;4954775;28;20190;-70
2022/10/24 03:30:49;;;;;;;10.23;4.18;;;15.10;99.90;;;;;;4954221;28;20529;-70
2022/10/24 03:33:15;;;;;;;8.07;3.92;;;15.10;99.90;;;;;;4967361;28;20130;-70
2022/10/24 03:35:41;;;;;;;14.38;3.90;;;15.20;99.90;;;;;;4960523;28;20031;-70
2022/10/24 03:38:07;;;;;;;7.13;3.70;;;15.30;99.90;;;;;;4964782;28;20192;-70
2022/10/24 03:40:36;;;;;;;11.57;3.53;;;15.40;99.90;;;;;;4971147;28;20098;-69
2022/10/24 03:43:03;;;;;;;9.23;3.60;;;15.50;99.90;;;;;;4964305;28;20089;-70
2022/10/24 03:45:29;;;;;;;9.77;3.60;;;15.60;99.90;;;;;;4959840;28;20058;-69
2022/10/24 03:47:54;;;;;;;16.90;3.47;;;15.70;99.90;;;;;;4964109;28;20047;-69
2022/10/24 03:50:20;;;;;;;8.80;3.58;;;15.70;99.90;;;;;;4960106;28;20043;-69
2022/10/24 03:52:46;;;;;;;7.53;3.22;;;15.70;99.90;;;;;;4955332;28;20387;-69
2022/10/24 03:55:12;;;;;;;7.05;3.05;;;15.80;99.90;;;;;;4968928;28;20085;-70
2022/10/24 03:57:37;;;;;;;5.65;2.60;;;15.90;99.90;;;;;;4962940;28;20071;-68
2022/10/24 04:00:04;;;;;;;5.65;3.00;;;15.90;99.90;;;;;;4960200;28;20043;-70
2022/10/24 04:02:30;;;;;;;8.05;3.67;;;15.90;99.90;;;;;;4961616;28;20449;-68
2022/10/24 04:04:56;;;;;;;6.88;2.88;;;15.80;99.90;;;;;;4966746;28;20047;-69
2022/10/24 04:07:21;;;;;;;8.85;3.08;;;15.70;99.90;;;;;;4974879;28;20081;-69
2022/10/24 04:09:47;;;;;;;12.07;3.22;;;15.70;99.90;;;;;;4961774;28;20043;-69
2022/10/24 04:12:14;;;;;;;6.40;2.88;;;15.70;99.90;;;;;;4971087;28;20094;-69
2022/10/24 04:14:39;;;;;;;9.35;3.10;;;15.60;99.90;;;;;;4972959;28;20093;-69
2022/10/24 04:17:05;;;;;;;10.32;3.33;;;15.60;99.90;;;;;;4953306;28;20039;-69
2022/10/24 04:19:31;;;;;;;8.63;3.08;;;15.60;99.90;;;;;;4970583;28;20077;-69
2022/10/24 04:21:57;;;;;;;8.40;2.95;;;15.50;99.90;;;;;;4966777;28;20516;-70
2022/10/24 04:24:23;;;;;;;9.98;2.90;;;15.50;99.90;;;;;;4963409;28;20047;-70
2022/10/24 04:26:48;;;;;;;8.63;2.97;;;15.50;99.90;;;;;;4960719;28;20133;-69
2022/10/24 04:29:14;;;;;;;8.18;3.17;;;15.60;99.90;;;;;;4962936;28;20043;-69
2022/10/24 04:31:40;;;;;;;10.50;3.78;;;15.60;99.90;;;;;;4965745;28;20041;-69
2022/10/24 04:34:05;;;;;;;9.57;3.08;;;15.60;99.90;;;;;;4961681;28;20063;-68
2022/10/24 04:36:32;;;;;;;5.13;2.33;;;15.70;99.90;;;;;;4970851;28;20035;-70
2022/10/24 04:38:57;;;;;;;5.60;2.83;;;15.70;99.90;;;;;;4964671;28;20047;-69
2022/10/24 04:41:23;;;;;;;6.13;2.58;;;15.70;99.90;;;;;;4959926;28;20039;-70
2022/10/24 04:43:50;;;;;;;9.02;2.92;;;15.60;99.90;;;;;;4964760;28;20039;-69
2022/10/24 04:46:16;;;;;;;6.05;2.70;;;15.50;99.90;;;;;;4963893;28;20043;-69
2022/10/24 04:48:41;;;;;;;8.27;3.00;;;15.40;99.90;;;;;;4959349;28;20070;-69
2022/10/24 04:51:07;;;;;;;7.88;2.90;;;15.30;99.90;;;;;;4962854;28;20050;-69
2022/10/24 04:53:32;;;;;;;4.35;2.65;;;15.30;99.90;;;;;;4956976;28;20074;-69
2022/10/24 04:55:58;;;;;;;8.18;2.70;;;15.30;99.90;;;;;;4956245;28;21172;-69
2022/10/24 04:58:24;;;;;;;5.53;2.58;;;15.30;99.90;;;;;;4963581;28;20039;-70
2022/10/24 05:00:49;;;;;;;11.05;2.58;;;15.30;99.90;;;;;;4953586;28;20035;-69
2022/10/24 05:03:17;;;;;;;5.15;2.53;;;15.40;99.90;;;;;;4954282;28;20035;-69
2022/10/24 05:05:43;;;;;;;5.70;2.35;;;15.50;99.90;;;;;;4958464;28;20089;-69
2022/10/24 05:08:09;;;;;;;6.45;2.58;;;15.60;99.90;;;;;;4958143;28;20036;-70
2022/10/24 05:10:34;;;;;;;5.18;2.20;;;15.60;99.90;;;;;;4968898;28;20445;-69
2022/10/24 05:13:00;;;;;;;7.35;2.53;;;15.50;99.90;;;;;;4980737;28;20486;-70
2022/10/24 05:15:28;;;;;;;8.43;2.88;;;15.40;99.90;;;;;;4964020;28;20510;-69
2022/10/24 05:17:54;;;;;;;7.03;2.30;;;15.40;99.90;;;;;;4966560;28;20255;-70
2022/10/24 05:20:20;;;;;;;6.43;2.58;;;15.30;99.90;;;;;;4962927;28;20044;-70
2022/10/24 05:22:46;;;;;;;6.43;2.55;;;15.30;99.90;;;;;;4960909;28;20047;-70
2022/10/24 05:25:11;;;;;;;8.85;2.67;;;15.20;99.90;;;;;;4959133;28;20047;-69
2022/10/24 05:27:37;;;;;;;6.68;2.63;;;15.20;99.90;;;;;;4967064;28;20106;-70
2022/10/24 05:30:03;;;;;;;4.75;2.60;;;15.00;99.90;;;;;;4957285;28;20054;-70
2022/10/24 05:32:28;;;;;;;5.25;2.50;;;14.90;99.90;;;;;;4960734;28;20055;-69
2022/10/24 05:38:36;;;;;;;7.88;2.53;;;15.20;99.90;;;;;;4971773;28;20519;-70
2022/10/24 05:41:01;;;;;;;8.63;2.80;;;15.00;99.90;;;;;;4963352;28;20047;-70
2022/10/24 05:43:27;;;;;;;9.00;2.95;;;15.00;99.90;;;;;;4955295;28;20043;-69
2022/10/24 05:45:53;;;;;;;7.10;2.97;;;14.90;99.90;;;;;;4978375;28;20055;-69
2022/10/24 05:48:18;;;;;;;8.80;2.70;;;14.80;99.90;;;;;;4952230;28;20062;-69
2022/10/24 05:50:44;;;;;;;6.88;2.58;;;14.80;99.90;;;;;;4972746;28;20039;-70
2022/10/24 05:53:09;;;;;;;10.63;2.40;;;14.80;99.90;;;;;;4966440;28;20035;-69
2022/10/24 05:55:36;;;;;;;7.57;2.83;;;14.90;99.90;;;;;;4964130;28;20134;-68
2022/10/24 05:58:01;;;;;;;10.27;2.40;;;14.90;99.90;;;;;;4967571;28;20493;-67
2022/10/24 06:00:27;;;;;;;12.27;3.05;;;14.90;99.90;;;;;;4967754;28;20046;-68
2022/10/24 06:02:52;;;;;;;7.60;2.70;;;14.90;99.90;;;;;;4984472;28;20057;-72
2022/10/24 06:05:18;;;;;;;8.13;2.80;;;14.90;99.90;;;;;;4960442;28;20555;-70
2022/10/24 06:07:44;;;;;;;7.07;2.80;;;14.90;99.90;;;;;;4962371;28;20039;-71
2022/10/24 06:10:11;;;;;;;6.95;3.13;;;14.90;99.90;;;;;;4968524;28;20046;-72
2022/10/24 06:12:38;;;;;;;8.02;2.97;;;14.90;99.90;;;;;;4957720;28;20041;-71
2022/10/24 06:15:06;;;;;;;9.02;2.60;;;14.80;99.90;;;;;;4961115;28;20453;-71
2022/10/24 06:17:32;;;;;;;8.05;2.97;;;14.70;99.90;;;;;;4967368;28;20038;-70
2022/10/24 06:19:58;;;;;;;10.65;2.78;;;14.70;99.90;;;;;;4950642;28;20035;-70
2022/10/24 06:22:24;;;;;;;10.88;2.60;;;14.80;99.90;;;;;;4964943;28;20039;-69
2022/10/24 06:24:50;;;;;;;6.85;2.58;;;14.90;99.90;;;;;;4968698;28;20051;-66
2022/10/24 06:27:15;;;;;;;9.45;3.47;;;15.00;99.90;;;;;;4964496;28;20039;-67
2022/10/24 06:29:41;;;;;;;9.15;3.60;;;15.00;99.90;;;;;;4951813;28;20045;-67
2022/10/24 06:35:52;;;;;;;11.30;3.38;;;15.00;99.90;;;;;;5052705;23;20073;-68
2022/10/24 06:38:17;;;;;;;7.18;2.75;;;14.90;99.90;;;;;;4977974;28;20401;-68
2022/10/24 06:40:43;;;;;;;8.38;2.67;;;14.90;99.90;;;;;;4986184;28;20035;-68
2022/10/24 06:43:08;;;;;;;7.57;2.60;;;14.80;99.90;;;;;;4986767;28;20049;-67
2022/10/24 06:45:36;;;;;;;8.07;2.58;;;14.80;99.90;;;;;;4981907;28;20039;-69
2022/10/24 06:48:02;;;;;;;9.73;2.40;;;14.80;99.90;;;;;;5003156;23;20039;-69
2022/10/24 06:50:27;;;;;;;7.28;2.60;;;14.90;99.90;;;;;;4969085;28;20038;-70
2022/10/24 06:52:53;;;;;;;7.70;2.55;;;15.00;99.90;;;;;;4963979;28;20039;-70
2022/10/24 06:55:18;;;;;;;5.95;2.35;;;15.00;99.90;;;;;;4963429;28;20493;-70
2022/10/24 06:57:44;;;;;;;8.10;2.40;;;15.00;99.90;;;;;;4961697;28;20039;-70
2022/10/24 07:00:10;;;;;;;9.32;2.28;;;15.00;99.90;;;;;;4969480;28;20065;-71
2022/10/24 07:02:36;;;;;;;6.72;2.67;;;15.00;99.90;;;;;;4961700;28;20035;-70
2022/10/24 07:05:02;;;;;;;8.18;2.50;;;15.10;99.90;;;;;;4964576;28;20049;-70
2022/10/24 07:07:27;;;;;;;7.43;2.80;;;15.10;99.90;;;;;;4972850;28;20051;-71
2022/10/24 07:09:56;;;;;;;7.28;2.47;;;15.10;99.90;;;;;;4974524;28;20093;-71
2022/10/24 07:12:23;;;;;;;9.02;2.70;;;15.00;99.90;;;;;;4961266;28;20098;-70
2022/10/24 07:14:49;;;;;;;6.45;2.38;;;15.10;99.90;;;;;;4962440;28;20035;-69
2022/10/24 07:17:16;;;;;;;9.38;2.55;;;15.00;99.90;;;;;;4953734;29;20481;-69
2022/10/24 07:19:42;;;;;;;7.38;2.10;;;15.00;99.90;;;;;;4953988;28;20035;-70
2022/10/24 07:22:08;;;;;;;9.38;2.33;;;15.10;99.90;;;;;;4971697;28;20408;-70
2022/10/24 07:24:33;;;;;;;8.63;2.50;;;15.10;99.90;;;;;;4972003;28;20038;-71
2022/10/24 07:26:59;;;;;;;6.78;2.00;;;15.00;99.90;;;;;;4968704;28;20101;-70
2022/10/24 07:29:25;;;;;;;6.55;2.15;;;15.10;99.90;;;;;;4963049;28;20042;-70
2022/10/24 07:31:50;;;;;;;11.32;2.60;;;15.30;99.90;;;;;;4967597;28;20413;-70
2022/10/24 07:34:16;;;;;;;26.13;3.88;;;15.40;99.90;;;;;;4965128;28;20031;-70
2022/10/24 07:36:42;;;;;;;8.98;2.20;;;15.50;99.90;;;;;;4958231;28;20045;-70
2022/10/24 07:39:08;;;;;;;16.88;2.67;;;15.60;99.90;;;;;;4964046;28;20341;-69
2022/10/24 07:41:36;;;;;;;7.50;2.35;;;15.70;99.90;;;;;;4965428;28;20127;-70
2022/10/24 07:44:02;;;;;;;11.98;2.20;;;15.70;99.90;;;;;;4958229;28;20039;-71
2022/10/24 07:46:28;;;;;;;11.68;2.50;;;15.80;99.90;;;;;;4961729;28;20057;-70
2022/10/24 07:48:54;;;;;;;13.50;2.10;;;15.80;99.90;;;;;;4970862;28;20096;-70
2022/10/24 07:51:21;;;;;;;8.35;2.42;;;15.80;99.90;;;;;;4962434;28;20047;-70
2022/10/24 07:53:47;;;;;;;8.05;2.28;;;15.80;99.90;;;;;;4964342;28;20042;-70
2022/10/24 07:56:14;;;;;;;8.63;2.10;;;15.80;99.90;;;;;;4971868;28;20043;-70
2022/10/24 07:58:42;;;;;;;6.60;2.25;;;15.80;99.90;;;;;;4971263;28;20043;-70
2022/10/24 08:01:18;;;;;;;6.20;2.00;;;15.90;99.90;;;;;;4964747;28;20054;-71
2022/10/24 08:03:44;;;;;;;9.80;2.03;;;16.00;99.90;;;;;;4964928;28;20074;-70
2022/10/24 08:06:12;;;;;;;29.95;3.17;;;16.10;99.90;;;;;;4959510;28;20580;-70
2022/10/24 08:08:38;;;;;;;19.08;2.60;;;16.10;99.90;;;;;;4952701;28;20105;-70
2022/10/24 08:11:09;;;;;;;10.13;2.33;;;16.10;99.90;;;;;;4953416;28;20561;-70
2022/10/24 08:13:35;;;;;;;7.55;1.90;;;16.20;99.90;;;;;;4961251;28;20497;-69
2022/10/24 08:16:01;;;;;;;8.13;2.00;;;16.30;99.90;;;;;;4957021;28;20058;-69
2022/10/24 08:18:27;;;;;;;6.65;1.88;;;16.30;99.90;;;;;;4958604;28;20050;-70
2022/10/24 08:21:00;;;;;;;7.93;1.88;;;16.40;99.90;;;;;;4968566;28;20043;-70
2022/10/24 08:23:26;;;;;;;8.35;1.90;;;16.40;99.90;;;;;;4961549;28;20050;-70
2022/10/24 08:25:52;;;;;;;6.38;1.80;;;16.40;99.90;;;;;;4960485;28;20052;-70
2022/10/24 08:28:18;;;;;;;7.10;1.98;;;16.40;99.90;;;;;;4958233;28;20049;-71
2022/10/24 08:30:44;;;;;;;6.85;2.10;;;16.40;99.90;;;;;;4959999;28;20528;-69
2022/10/24 08:33:09;;;;;;;5.82;1.67;;;16.60;99.90;;;;;;4962526;28;20043;-70
2022/10/24 08:35:35;;;;;;;8.85;1.95;;;16.80;99.90;;;;;;4961434;28;20078;-70
2022/10/24 08:38:00;;;;;;;6.28;1.90;;;17.00;99.90;;;;;;4958911;28;20098;-69
2022/10/24 08:40:27;;;;;;;8.13;2.10;;;17.10;99.90;;;;;;4959650;28;20043;-69
2022/10/24 08:42:53;;;;;;;9.45;1.60;;;17.10;99.90;;;;;;4958818;28;20050;-69
2022/10/24 08:45:49;;;;;;;4.45;1.65;;;17.00;99.90;;;;;;4962446;28;20047;-69
2022/10/24 08:48:21;;;;;;;8.50;2.22;;;16.90;99.90;;;;;;4959403;28;20047;-70
2022/10/24 08:50:50;;;;;;;8.95;2.00;;;17.10;99.90;;;;;;4967350;28;20511;-71
2022/10/24 08:53:23;;;;;;;6.10;1.80;;;17.20;99.90;;;;;;4958024;28;20520;-70
2022/10/24 08:55:52;;;;;;;8.00;1.90;;;17.40;99.90;;;;;;4954939;28;20134;-71
2022/10/24 08:58:23;;;;;;;7.55;1.92;;;17.40;99.90;;;;;;4970012;28;20046;-70
2022/10/24 09:00:52;;;;;;;7.78;2.17;;;17.30;99.90;;;;;;4960728;28;20090;-71
2022/10/24 09:03:26;;;;;;;9.07;2.40;;;17.30;99.90;;;;;;4967008;28;20093;-71
2022/10/24 09:06:02;;;;;;;9.25;2.00;;;17.30;99.90;;;;;;4959943;28;20108;-69
2022/10/24 09:08:42;;;;;;;8.88;1.83;;;17.20;99.90;;;;;;4962141;28;20062;-70
2022/10/24 09:11:14;;;;;;;9.43;1.90;;;17.20;99.90;;;;;;4965594;28;20043;-69
2022/10/24 09:13:40;;;;;;;5.88;1.67;;;17.20;99.90;;;;;;4971208;28;20053;-70
2022/10/24 09:16:13;;;;;;;10.10;1.80;;;17.20;99.90;;;;;;4960795;28;20048;-70
2022/10/24 09:18:43;;;;;;;5.90;1.60;;;17.20;99.90;;;;;;4954087;28;20557;-70
2022/10/24 09:21:12;;;;;;;5.78;1.88;;;17.30;99.90;;;;;;4970253;28;20039;-70
2022/10/24 09:23:38;;;;;;;6.00;1.95;;;17.30;99.90;;;;;;4956912;28;20435;-70
2022/10/24 09:26:17;;;;;;;4.68;1.75;;;17.30;99.90;;;;;;4957191;28;20136;-69
2022/10/24 09:28:43;;;;;;;7.13;1.80;;;17.40;99.90;;;;;;4961209;28;20513;-69
2022/10/24 09:31:18;;;;;;;8.40;1.90;;;17.50;99.90;;;;;;4970422;28;20046;-70
2022/10/24 09:33:46;;;;;;;6.35;1.70;;;17.50;99.90;;;;;;4950365;28;20058;-70
2022/10/24 09:36:15;;;;;;;6.55;1.80;;;17.40;99.90;;;;;;4959042;28;20494;-70
2022/10/24 09:38:42;;;;;;;7.60;1.77;;;17.40;99.90;;;;;;4951360;28;20486;-70
2022/10/24 09:41:16;;;;;;;5.95;1.88;;;17.40;99.90;;;;;;4958231;28;20039;-70
2022/10/24 09:43:45;;;;;;;5.45;2.17;;;17.40;99.90;;;;;;4967972;28;20039;-69
2022/10/24 09:46:34;;;;;;;7.47;1.95;;;17.40;99.90;;;;;;4971675;28;20061;-70
2022/10/24 09:49:18;;;;;;;5.43;1.60;;;17.50;99.90;;;;;;4957032;28;20054;-70
2022/10/24 09:51:48;;;;;;;8.45;1.92;;;17.50;99.90;;;;;;4967617;28;20517;-70
2022/10/24 09:54:19;;;;;;;6.43;2.03;;;17.40;99.90;;;;;;4967705;28;20513;-70
2022/10/24 09:57:12;;;;;;;12.45;1.90;;;17.30;99.90;;;;;;4974266;28;20050;-70
2022/10/24 09:59:56;;;;;;;7.90;2.00;;;17.20;99.90;;;;;;4964411;28;20431;-70
2022/10/24 10:02:33;;;;;;;6.53;1.73;;;17.10;99.90;;;;;;4965751;28;20053;-68
2022/10/24 10:05:02;;;;;;;8.50;2.05;;;17.20;99.90;;;;;;4970125;28;20093;-70
2022/10/24 10:07:31;;;;;;;11.98;1.77;;;17.20;99.90;;;;;;4955712;28;20046;-70
2022/10/24 10:09:59;;;;;;;8.15;1.70;;;17.20;99.90;;;;;;4971970;28;20169;-69
2022/10/24 10:12:38;;;;;;;8.15;1.70;;;17.10;99.90;;;;;;4967153;28;20136;-70
2022/10/24 10:15:30;;;;;;;6.93;1.70;;;17.00;99.90;;;;;;4960545;28;20039;-70
2022/10/24 10:17:57;;;;;;;;;;;16.50;99.90;;;;;;4956008;28;20073;-70
2022/10/24 10:20:31;;;;;;;8.00;2.08;;;16.30;99.90;;;;;;4965688;28;20448;-70
2022/10/24 10:23:25;;;;;;;4.40;1.80;;;16.10;99.90;;;;;;4956272;28;20042;-69
2022/10/24 10:26:05;;;;;;;5.63;1.98;;;16.00;99.90;;;;;;4963025;28;20086;-70
2022/10/24 10:28:35;;;;;;;5.80;1.83;;;15.90;99.90;;;;;;4972514;28;20069;-69
2022/10/24 10:31:02;;;;;;;7.85;1.77;;;15.90;99.90;;;;;;4971901;28;20137;-70
2022/10/24 10:33:50;;;;;;;7.32;2.28;;;15.80;99.90;;;;;;4962216;28;20046;-69
2022/10/24 10:36:21;;;;;;;8.35;3.10;;;15.90;99.90;;;;;;4955506;28;20606;-69
2022/10/24 10:39:23;;;;;;;8.77;1.95;;;15.90;99.90;;;;;;4961603;28;20066;-70
2022/10/24 10:42:11;;;;;;;7.82;2.10;;;16.10;99.90;;;;;;4969089;28;20125;-71
2022/10/24 10:45:03;;;;;;;10.23;1.98;;;16.30;99.90;;;;;;4960352;28;20043;-70
2022/10/24 10:47:48;;;;;;;6.85;1.85;;;16.50;99.90;;;;;;4915269;28;20561;-70
2022/10/24 10:50:32;;;;;;;7.28;1.95;;;16.70;99.90;;;;;;4968108;28;20035;-70
2022/10/24 10:53:17;;;;;;;8.38;2.08;;;16.80;99.90;;;;;;4967657;28;20670;-70
2022/10/24 10:55:54;;;;;;;6.90;2.05;;;16.90;99.90;;;;;;4968151;28;20079;-70
2022/10/24 10:58:35;;;;;;;6.90;1.70;;;17.00;99.90;;;;;;4964459;28;20047;-71
2022/10/24 11:01:11;;;;;;;3.97;1.60;;;17.10;99.90;;;;;;4957858;28;20081;-70
2022/10/24 11:04:12;;;;;;;8.25;2.15;;;17.20;99.90;;;;;;4963023;28;20035;-69
2022/10/24 11:07:02;;;;;;;4.82;1.58;;;17.20;99.90;;;;;;4961217;28;20043;-69
2022/10/24 11:09:45;;;;;;;6.20;1.87;;;17.30;99.90;;;;;;4963944;28;20050;-69
2022/10/24 11:12:24;;;;;;;9.48;1.88;;;17.20;99.90;;;;;;4952410;28;20313;-71
2022/10/24 11:15:06;;;;;;;6.22;1.50;;;17.10;99.90;;;;;;4968466;28;20054;-69
2022/10/24 11:17:49;;;;;;;4.47;1.80;;;17.00;99.90;;;;;;4962872;28;20050;-69
2022/10/24 11:20:33;;;;;;;5.70;1.98;;;17.10;99.90;;;;;;4961351;28;20338;-70
2022/10/24 11:23:26;;;;;;;9.75;1.92;;;17.20;99.90;;;;;;4955875;28;20053;-70
2022/10/24 11:26:18;;;;;;;7.05;1.80;;;17.30;99.90;;;;;;4962511;28;20045;-70
2022/10/24 11:28:57;;;;;;;4.70;1.73;;;17.40;99.90;;;;;;4955969;28;20053;-70
2022/10/24 11:31:36;;;;;;;5.45;2.05;;;17.40;99.90;;;;;;4960733;28;20062;-70
2022/10/24 11:34:09;;;;;;;7.43;2.30;;;17.20;99.90;;;;;;4954530;28;20114;-70
2022/10/24 11:36:58;;;;;;;6.68;2.10;;;17.20;99.90;;;;;;4954931;28;20039;-69
2022/10/24 11:39:33;;;;;;;4.10;1.90;;;17.30;99.90;;;;;;4958349;28;20066;-70
2022/10/24 11:42:05;;;;;;;7.07;2.03;;;17.40;99.90;;;;;;4954406;28;20505;-70
2022/10/24 11:44:54;;;;;;;6.97;1.95;;;17.60;99.90;;;;;;4952984;28;20051;-70
2022/10/24 11:47:23;;;;;;;6.45;1.52;;;17.60;99.90;;;;;;4955360;28;20042;-71
2022/10/24 11:49:59;;;;;;;6.60;1.73;;;17.50;99.90;;;;;;4967668;28;20073;-70
2022/10/24 11:52:29;;;;;;;5.82;1.80;;;17.40;99.90;;;;;;4967482;28;20061;-70
2022/10/24 11:55:02;;;;;;;10.63;2.20;;;17.30;99.90;;;;;;4961730;28;20112;-71
2022/10/24 11:57:30;;;;;;;10.07;2.10;;;17.20;99.90;;;;;;4955732;28;20039;-70
2022/10/24 11:59:56;;;;;;;7.75;1.77;;;17.20;99.90;;;;;;4969847;28;20106;-71
2022/10/24 12:02:53;;;;;;;4.00;1.48;;;17.20;99.90;;;;;;4964228;28;20039;-70
2022/10/24 12:05:44;;;;;;;5.15;1.63;;;17.20;99.90;;;;;;4961308;28;20047;-70
2022/10/24 12:08:28;;;;;;;;;;;17.10;99.90;;;;;;4953960;28;20046;-70
2022/10/24 12:11:27;;;;;;;6.72;2.00;;;17.20;99.90;;;;;;4953891;29;20026;-70
2022/10/24 12:14:17;;;;;;;6.00;1.90;;;17.20;99.90;;;;;;4935189;28;20042;-70
2022/10/24 12:16:46;;;;;;;7.13;1.60;;;17.30;99.90;;;;;;4968307;28;20053;-70
2022/10/24 12:19:15;;;;;;;10.77;2.00;;;17.20;99.90;;;;;;4955889;28;20058;-71
2022/10/24 12:21:47;;;;;;;7.95;1.70;;;17.30;99.90;;;;;;4961626;28;20046;-69
2022/10/24 12:24:29;;;;;;;5.38;1.95;;;17.30;99.90;;;;;;4966169;28;20046;-70
2022/10/24 12:27:01;;;;;;;6.70;2.00;;;17.30;99.90;;;;;;4972893;28;20556;-70
2022/10/24 12:29:32;;;;;;;8.18;1.88;;;17.30;99.90;;;;;;4966130;28;20052;-72
2022/10/24 12:31:58;;;;;;;6.30;1.70;;;17.20;99.90;;;;;;4960420;28;20510;-71
2022/10/24 12:34:26;;;;;;;9.68;1.90;;;17.20;99.90;;;;;;4957412;28;20382;-70
2022/10/24 12:37:10;;;;;;;5.90;1.50;;;17.20;99.90;;;;;;4960064;28;20541;-69
2022/10/24 12:39:47;;;;;;;4.90;1.45;;;17.20;99.90;;;;;;4961294;28;20108;-70
2022/10/24 12:42:13;;;;;;;4.85;1.63;;;17.20;99.90;;;;;;4965347;28;20039;-70
2022/10/24 12:44:41;;;;;;;5.07;1.65;;;17.20;99.90;;;;;;4959355;28;20093;-69
2022/10/24 12:47:27;;;;;;;4.65;1.48;;;17.20;99.90;;;;;;4955837;28;20047;-70
2022/10/24 12:49:53;;;;;;;7.75;1.70;;;17.20;99.90;;;;;;5021313;23;20042;-69
2022/10/24 12:52:31;;;;;;;6.30;1.80;;;17.30;99.90;;;;;;4997935;28;20042;-65
2022/10/24 12:54:58;;;;;;;6.78;1.50;;;17.40;99.90;;;;;;5002599;28;20046;-68
2022/10/24 12:57:34;;;;;;;6.25;1.88;;;17.30;99.90;;;;;;4998532;28;20111;-66
2022/10/24 13:00:00;;;;;;;3.85;1.42;;;17.30;99.90;;;;;;4980631;28;20054;-67
2022/10/24 13:02:35;;;;;;;3.55;1.60;;;17.20;99.90;;;;;;4991306;28;20085;-69
2022/10/24 13:05:01;;;;;;;4.15;1.60;;;17.20;99.90;;;;;;4979765;28;20046;-68
2022/10/24 13:07:55;;;;;;;6.05;1.50;;;17.20;99.90;;;;;;4988943;28;20039;-69
2022/10/24 13:10:47;;;;;;;7.50;1.67;;;17.30;99.90;;;;;;4973010;28;20053;-69
2022/10/24 13:13:41;;;;;;;4.63;1.30;;;17.20;99.90;;;;;;4984432;28;20045;-68